Time;durP1;ratioP1;P1;durP2;ratioP2;P2;SDS_P1;SDS_P2;PMS_P1;PMS_P2;Temp;Humidity;BMP_temperature;BMP_pressure;BME280_temperature;BME280_humidity;BME280_pressure;Samples;Min_cycle;Max_cycle;Signal;HPM_P1;HPM_P2
2022/03/21 00:01:03;;;;;;;;;20.50;17.75;;;;;14.97;33.51;100757.13;4893961;28;105499;-82
2022/03/21 00:03:30;;;;;;;;;20.25;18.50;;;;;14.97;33.58;100759.84;4908180;28;103475;-83
2022/03/21 00:05:58;;;;;;;;;16.50;15.00;;;;;14.95;33.86;100756.44;4904588;28;102322;-82
2022/03/21 00:08:25;;;;;;;;;22.50;17.50;;;;;14.94;33.36;100757.50;4904578;28;104028;-82
2022/03/21 00:10:53;;;;;;;;;20.00;19.75;;;;;14.93;33.75;100760.38;4903322;28;102516;-82
2022/03/21 00:13:20;;;;;;;;;19.00;17.75;;;;;14.90;33.91;100761.59;4903756;28;102601;-82
2022/03/21 00:15:48;;;;;;;;;18.50;17.00;;;;;14.90;33.88;100758.88;4905266;28;102460;-82
2022/03/21 00:18:15;;;;;;;;;20.25;19.50;;;;;14.89;33.63;100754.44;4899001;28;104029;-82
2022/03/21 00:20:46;;;;;;;;;17.00;16.25;;;;;14.89;33.39;100754.44;4903487;28;102263;-82
2022/03/21 00:23:13;;;;;;;;;25.00;19.00;;;;;14.89;33.83;100753.59;4901436;28;102110;-82
2022/03/21 00:25:40;;;;;;;;;18.25;16.25;;;;;14.88;33.61;100752.72;4907571;28;102848;-82
2022/03/21 00:28:08;;;;;;;;;18.00;17.25;;;;;14.87;33.91;100747.44;4902999;28;104195;-82
2022/03/21 00:30:36;;;;;;;;;21.00;19.00;;;;;14.87;33.67;100740.13;4894669;28;102685;-82
2022/03/21 00:33:03;;;;;;;;;18.75;16.25;;;;;14.84;33.91;100743.22;4899076;28;102324;-82
2022/03/21 00:35:30;;;;;;;;;18.25;17.25;;;;;14.84;33.80;100739.66;4899080;28;102791;-82
2022/03/21 00:37:58;;;;;;;;;19.50;18.50;;;;;14.83;33.98;100744.25;4905957;28;104819;-82
2022/03/21 00:40:25;;;;;;;;;22.50;19.00;;;;;14.82;33.57;100742.53;4904713;28;102829;-82
2022/03/21 00:42:52;;;;;;;;;19.00;16.25;;;;;14.82;33.72;100731.63;4906941;28;102536;-82
2022/03/21 00:45:25;;;;;;;;;16.50;15.00;;;;;14.82;33.69;100737.09;4901046;28;102555;-83
2022/03/21 00:47:53;;;;;;;;;17.00;16.00;;;;;14.80;33.88;100725.53;4896016;28;104254;-83
2022/03/21 00:50:22;;;;;;;;;16.75;16.00;;;;;14.80;33.39;100728.25;4905207;28;102540;-82
2022/03/21 00:52:52;;;;;;;;;14.75;13.50;;;;;14.80;33.49;100736.44;4918800;28;102493;-82
2022/03/21 00:55:20;;;;;;;;;15.75;14.75;;;;;14.79;33.21;100731.16;4892817;28;102502;-82
2022/03/21 00:57:49;;;;;;;;;21.00;18.25;;;;;14.78;33.54;100732.16;4903939;28;108931;-82
2022/03/21 01:00:18;;;;;;;;;19.75;17.25;;;;;14.77;33.20;100739.47;4902138;28;102562;-82
2022/03/21 01:02:45;;;;;;;;;17.50;16.25;;;;;14.78;33.53;100734.88;4897773;28;102237;-82
2022/03/21 01:05:13;;;;;;;;;21.75;18.00;;;;;14.75;33.72;100730.66;4874915;28;102784;-83
2022/03/21 01:07:40;;;;;;;;;20.75;19.50;;;;;14.73;33.33;100724.53;4886154;28;105006;-82
2022/03/21 01:10:09;;;;;;;;;14.75;14.75;;;;;14.75;33.41;100730.66;4902183;28;104357;-82
2022/03/21 01:12:36;;;;;;;;;18.50;16.50;;;;;14.74;33.98;100731.69;4902778;28;102249;-82
2022/03/21 01:15:05;;;;;;;;;18.00;17.00;;;;;14.72;33.53;100731.03;4897987;28;103423;-82
2022/03/21 01:17:32;;;;;;;;;18.25;15.75;;;;;14.71;34.03;100724.72;4906501;28;104214;-82
2022/03/21 01:20:00;;;;;;;;;17.00;14.75;;;;;14.69;33.45;100732.19;4904998;28;102359;-82
2022/03/21 01:22:27;;;;;;;;;20.00;15.75;;;;;14.68;33.76;100732.38;4901210;28;104478;-82
2022/03/21 01:24:54;;;;;;;;;17.50;15.50;;;;;14.67;33.78;100726.09;4905091;28;104349;-82
2022/03/21 01:27:22;;;;;;;;;21.00;18.50;;;;;14.67;33.97;100725.25;4902303;28;104371;-83
2022/03/21 01:29:49;;;;;;;;;16.50;15.25;;;;;14.65;34.08;100724.56;4911028;28;102562;-82
2022/03/21 01:32:17;;;;;;;;;16.75;16.25;;;;;14.64;33.78;100728.31;4897229;28;104698;-82
2022/03/21 01:34:44;;;;;;;;;15.75;15.75;;;;;14.62;33.66;100728.50;4903661;28;102659;-82
2022/03/21 01:37:11;;;;;;;;;19.75;16.50;;;;;14.62;33.70;100724.91;4917037;28;103930;-82
2022/03/21 01:39:38;;;;;;;;;17.75;13.50;;;;;14.58;33.75;100724.44;4895130;28;103198;-82
2022/03/21 01:42:06;;;;;;;;;17.75;16.00;;;;;14.60;33.58;100721.50;4907188;28;103486;-82
2022/03/21 01:44:33;;;;;;;;;18.00;15.50;;;;;14.58;33.35;100718.13;4901378;28;102421;-82
2022/03/21 01:47:00;;;;;;;;;17.50;12.50;;;;;14.57;33.82;100719.16;4894615;28;104282;-82
2022/03/21 01:49:27;;;;;;;;;16.00;14.50;;;;;14.58;33.12;100715.41;4899618;28;102857;-82
2022/03/21 01:51:54;;;;;;;;;17.50;16.25;;;;;14.58;33.54;100715.41;4901308;28;102461;-82
2022/03/21 01:57:06;;;;;;;;;15.25;14.25;;;;;14.55;33.79;100716.59;4902760;28;109278;-82
2022/03/21 01:59:33;;;;;;;;;17.00;15.50;;;;;14.54;33.51;100706.75;4885280;28;103005;-82
2022/03/21 02:02:00;;;;;;;;;19.25;15.75;;;;;14.52;33.86;100707.94;4890899;28;102506;-82
2022/03/21 02:04:27;;;;;;;;;15.25;12.75;;;;;14.51;33.52;100708.94;4885592;28;102233;-82
2022/03/21 02:06:54;;;;;;;;;18.25;15.50;;;;;14.51;33.79;100708.94;4885657;28;104056;-82
2022/03/21 02:09:21;;;;;;;;;16.75;13.50;;;;;14.50;34.04;100704.56;4913613;28;102306;-82
2022/03/21 02:11:49;;;;;;;;;19.00;15.75;;;;;14.49;33.54;100705.56;4894197;28;102743;-82
2022/03/21 02:14:16;;;;;;;;;17.25;15.25;;;;;14.49;33.85;100700.13;4893432;28;102634;-82
2022/03/21 02:16:43;;;;;;;;;14.50;14.50;;;;;14.47;33.33;100718.50;4911575;28;104364;-82
2022/03/21 02:19:20;;;;;;;;;14.50;12.75;;;;;14.45;34.32;100715.09;4900051;28;105324;-82
2022/03/21 02:22:17;;;;;;;;;18.75;16.00;;;;;14.44;33.99;100710.69;4896001;28;105164;-82
2022/03/21 02:24:46;;;;;;;;;14.25;12.00;;;;;14.44;33.47;100710.69;4917862;28;104482;-82
2022/03/21 02:27:14;;;;;;;;;19.25;17.00;;;;;14.43;33.70;100718.00;4898269;28;104192;-82
2022/03/21 02:29:41;;;;;;;;;15.00;12.75;;;;;14.42;34.09;100719.00;4896887;28;102601;-82
2022/03/21 02:32:08;;;;;;;;;17.00;14.75;;;;;14.41;33.22;100714.59;4893875;28;104085;-82
2022/03/21 02:34:37;;;;;;;;;15.25;14.75;;;;;14.40;33.34;100712.91;4897948;28;102663;-82
2022/03/21 02:37:05;;;;;;;;;16.50;15.75;;;;;14.39;33.72;100713.06;4896975;28;104130;-82
2022/03/21 02:39:32;;;;;;;;;17.00;15.25;;;;;14.39;34.06;100719.38;4899408;28;106091;-82
2022/03/21 02:41:59;;;;;;;;;17.25;16.25;;;;;14.39;33.47;100722.09;4899568;28;102247;-82
2022/03/21 02:44:35;;;;;;;;;18.75;15.00;;;;;14.39;34.04;100729.41;4893100;28;102560;-82
2022/03/21 02:47:03;;;;;;;;;11.75;10.75;;;;;14.38;34.21;100738.59;4898225;28;104075;-82
2022/03/21 02:49:31;;;;;;;;;17.75;17.00;;;;;14.36;33.43;100735.22;4892596;28;104485;-82
2022/03/21 02:52:01;;;;;;;;;13.50;12.25;;;;;14.37;33.64;100734.16;4894466;28;102518;-82
2022/03/21 02:54:28;;;;;;;;;18.25;14.25;;;;;14.35;33.97;100733.47;4899271;28;102406;-82
2022/03/21 02:56:55;;;;;;;;;13.00;13.00;;;;;14.36;33.94;100727.91;4900551;28;104332;-82
2022/03/21 02:59:22;;;;;;;;;16.00;13.00;;;;;14.35;33.68;100731.59;4883830;28;104433;-82
2022/03/21 03:01:53;;;;;;;;;15.50;15.50;;;;;14.37;34.24;100720.56;4881765;28;103105;-82
2022/03/21 03:04:24;;;;;;;;;18.00;17.00;;;;;14.34;33.41;100720.88;4900186;28;104426;-82
2022/03/21 03:06:51;;;;;;;;;14.25;12.50;;;;;14.34;33.26;100727.16;4903733;28;109185;-82
2022/03/21 03:09:18;;;;;;;;;17.75;14.75;;;;;14.34;34.01;100726.31;4895657;28;103395;-82
2022/03/21 03:11:46;;;;;;;;;16.50;15.75;;;;;14.32;34.04;100721.88;4900140;28;102341;-82
2022/03/21 03:14:13;;;;;;;;;15.25;14.75;;;;;14.32;33.47;100721.88;4901096;28;103450;-82
2022/03/21 03:16:40;;;;;;;;;17.50;16.00;;;;;14.29;33.24;100722.25;4903901;28;104221;-82
2022/03/21 03:19:07;;;;;;;;;14.75;13.50;;;;;14.30;33.96;100715.78;4899922;28;102627;-82
2022/03/21 03:21:39;;;;;;;;;11.75;11.75;;;;;14.30;33.71;100712.22;4903921;28;103012;-82
2022/03/21 03:24:07;;;;;;;;;17.00;14.00;;;;;14.29;33.53;100714.09;4903913;28;102615;-82
2022/03/21 03:26:33;;;;;;;;;18.25;15.00;;;;;14.30;33.39;100718.50;4901966;28;104372;-82
2022/03/21 03:29:01;;;;;;;;;16.50;15.50;;;;;14.32;33.14;100717.50;4896524;28;103440;-82
2022/03/21 03:31:28;;;;;;;;;12.50;11.25;;;;;14.30;33.62;100720.38;4900451;28;106607;-82
2022/03/21 03:33:55;;;;;;;;;15.75;13.00;;;;;14.30;33.76;100713.06;4883842;28;103970;-82
2022/03/21 03:36:22;;;;;;;;;16.00;14.25;;;;;14.32;33.32;100719.16;4900799;28;104686;-82
2022/03/21 03:38:50;;;;;;;;;16.25;14.50;;;;;14.35;33.67;100722.59;4881010;28;102777;-82
2022/03/21 03:41:17;;;;;;;;;15.50;14.75;;;;;14.37;33.63;100715.09;4900509;28;102792;-82
2022/03/21 03:43:44;;;;;;;;;18.25;16.75;;;;;14.38;33.48;100716.81;4899813;28;104775;-82
2022/03/21 03:46:11;;;;;;;;;17.75;16.50;;;;;14.40;33.59;100715.63;4896569;28;103057;-82
2022/03/21 03:48:38;;;;;;;;;18.50;16.50;;;;;14.40;33.87;100722.94;4897431;28;102454;-82
2022/03/21 03:51:05;;;;;;;;;19.00;17.00;;;;;14.42;33.17;100723.59;4894536;28;102061;-82
2022/03/21 03:53:33;;;;;;;;;18.25;16.00;;;;;14.43;33.55;100720.72;4900441;28;102479;-82
2022/03/21 03:56:00;;;;;;;;;21.00;15.00;;;;;14.46;33.05;100727.66;4897443;28;104013;-82
2022/03/21 03:58:27;;;;;;;;;17.25;16.50;;;;;14.48;33.16;100717.47;4886193;28;104222;-83
2022/03/21 04:00:54;;;;;;;;;25.00;21.25;;;;;14.49;32.98;100719.19;4880728;28;104903;-83
2022/03/21 04:06:07;;;;;;;;;20.00;17.75;;;;;14.51;32.88;100717.13;4893162;28;109100;-83
2022/03/21 04:08:34;;;;;;;;;18.75;17.50;;;;;14.50;33.35;100720.88;4899789;28;104714;-83
2022/03/21 04:11:01;;;;;;;;;17.75;14.25;;;;;14.50;33.05;100721.72;4895985;28;102985;-83
2022/03/21 04:13:28;;;;;;;;;18.00;17.25;;;;;14.49;32.94;100721.91;4893524;28;102739;-83
2022/03/21 04:15:55;;;;;;;;;16.00;16.00;;;;;14.48;33.02;100720.19;4898079;28;104111;-83
2022/03/21 04:18:22;;;;;;;;;17.00;15.50;;;;;14.48;33.36;100722.91;4897650;28;102128;-83
2022/03/21 04:21:09;;;;;;;;;17.00;14.50;;;;;14.48;33.10;100720.19;4898382;28;102616;-83
2022/03/21 04:23:36;;;;;;;;;18.50;15.75;;;;;14.46;33.41;100725.81;4898622;28;102575;-83
2022/03/21 04:26:03;;;;;;;;;15.00;12.75;;;;;14.46;33.01;100735.84;4898804;28;105136;-83
2022/03/21 04:28:30;;;;;;;;;15.25;13.50;;;;;14.45;33.06;100726.00;4900065;28;104330;-83
2022/03/21 04:30:57;;;;;;;;;22.75;19.00;;;;;14.45;33.05;100728.72;4905069;28;102548;-83
2022/03/21 04:33:24;;;;;;;;;6.50;6.50;;;;;14.44;33.13;100729.75;4905878;28;103874;-83
2022/03/21 04:35:51;;;;;;;;;19.50;16.50;;;;;14.42;32.85;100737.22;4908883;28;104020;-83
2022/03/21 04:38:19;;;;;;;;;14.75;13.75;;;;;14.38;33.15;100728.56;4900291;28;102622;-83
2022/03/21 04:40:48;;;;;;;;;17.00;16.00;;;;;14.36;32.96;100730.63;4891690;28;103586;-82
2022/03/21 04:43:16;;;;;;;;;18.50;16.25;;;;;14.36;32.83;100730.63;4899792;28;103659;-83
2022/03/21 04:45:44;;;;;;;;;19.25;15.50;;;;;14.35;33.21;100728.88;4893939;28;104266;-83
2022/03/21 04:48:11;;;;;;;;;15.00;15.00;;;;;14.35;33.38;100736.19;4894944;28;102719;-82
2022/03/21 04:50:38;;;;;;;;;15.00;12.50;;;;;14.34;33.47;100737.19;4896420;28;104100;-83
2022/03/21 04:53:06;;;;;;;;;14.75;13.25;;;;;14.34;33.54;100737.19;4899630;28;102603;-83
2022/03/21 04:55:34;;;;;;;;;15.50;12.25;;;;;14.30;32.99;100732.13;4897057;28;104244;-83
2022/03/21 04:58:01;;;;;;;;;20.00;15.00;;;;;14.30;33.74;100729.41;4917391;28;102544;-83
2022/03/21 05:00:30;;;;;;;;;17.75;16.25;;;;;14.31;33.19;100732.97;4889469;28;104972;-83
2022/03/21 05:02:57;;;;;;;;;18.50;16.25;;;;;14.28;33.19;100734.16;4899992;28;102592;-83
2022/03/21 05:05:25;;;;;;;;;16.25;14.00;;;;;14.28;33.70;100736.88;4903100;28;104067;-83
2022/03/21 05:07:53;;;;;;;;;15.25;13.75;;;;;14.27;32.99;100727.00;4901721;28;103041;-83
2022/03/21 05:10:23;;;;;;;;;19.25;16.00;;;;;14.28;33.18;100733.28;4897167;28;102475;-83
2022/03/21 05:12:50;;;;;;;;;16.75;16.25;;;;;14.25;33.52;100734.50;4901005;28;102836;-82
2022/03/21 05:15:18;;;;;;;;;17.75;17.75;;;;;14.24;33.52;100732.78;4900778;28;104210;-83
2022/03/21 05:17:45;;;;;;;;;18.25;16.50;;;;;14.24;33.56;100732.78;4895474;28;103385;-83
2022/03/21 05:20:16;;;;;;;;;18.00;15.50;;;;;14.24;32.75;100737.38;4900825;28;102582;-83
2022/03/21 05:31:09;;;;;;;;;19.75;17.50;;;;;14.21;33.52;100744.03;4900501;28;102247;-83
2022/03/21 05:36:26;;;;;;;;;18.00;17.25;;;;;14.22;33.33;100747.63;4894369;28;108930;-83
2022/03/21 05:38:56;;;;;;;;;18.75;16.00;;;;;14.19;33.44;100746.06;4896872;28;102549;-83
2022/03/21 05:41:24;;;;;;;;;19.50;16.75;;;;;14.17;33.02;100748.13;4902425;28;102588;-82
2022/03/21 05:43:51;;;;;;;;;17.00;16.75;;;;;14.17;33.32;100745.41;4902146;28;102233;-83
2022/03/21 05:46:18;;;;;;;;;17.25;16.25;;;;;14.15;33.79;100755.59;4912270;28;104088;-83
2022/03/21 05:48:51;;;;;;;;;21.50;18.25;;;;;14.14;32.98;100755.75;4898832;28;102431;-83
2022/03/21 05:51:42;;;;;;;;;18.00;17.00;;;;;14.13;33.03;100754.09;4906906;28;102686;-83
2022/03/21 05:54:11;;;;;;;;;17.50;16.25;;;;;14.12;33.02;100758.66;4900910;28;102457;-83
2022/03/21 05:56:39;;;;;;;;;13.25;11.75;;;;;14.13;33.63;100757.66;4896038;28;104235;-83
2022/03/21 06:01:52;;;;;;;;;15.25;14.00;;;;;14.11;33.14;100756.97;4892876;28;102673;-83
2022/03/21 06:04:19;;;;;;;;;18.50;13.25;;;;;14.11;32.83;100767.84;4912693;28;102516;-83
2022/03/21 06:06:46;;;;;;;;;20.25;17.00;;;;;14.09;32.97;100771.78;4898203;28;104651;-83
2022/03/21 06:09:15;;;;;;;;;16.00;16.00;;;;;14.07;33.34;100769.22;4896249;28;102533;-83
2022/03/21 06:11:48;;;;;;;;;17.00;16.00;;;;;14.06;33.12;100770.22;4899258;28;102689;-83
2022/03/21 06:14:18;;;;;;;;;15.00;13.00;;;;;14.05;33.68;100776.69;4898557;28;108035;-83
2022/03/21 06:16:46;;;;;;;;;17.75;16.50;;;;;14.06;33.44;100770.22;4895509;28;104098;-83
2022/03/21 06:19:14;;;;;;;;;15.50;12.50;;;;;14.05;33.00;100771.25;4893626;28;102525;-83
2022/03/21 06:21:41;;;;;;;;;18.50;18.25;;;;;14.06;33.42;100772.94;4884783;28;102395;-83
2022/03/21 06:24:11;;;;;;;;;13.50;11.50;;;;;14.06;33.43;100778.38;4901229;28;102697;-83
2022/03/21 06:26:39;;;;;;;;;18.75;17.00;;;;;14.05;33.13;100775.84;4906525;28;104411;-83
2022/03/21 06:29:05;;;;;;;;;16.75;15.75;;;;;14.04;33.06;100775.00;4904148;28;104887;-83
2022/03/21 06:31:32;;;;;;;;;16.00;15.75;;;;;14.06;32.88;100777.53;4901559;28;102614;-83
2022/03/21 06:34:00;;;;;;;;;17.00;16.25;;;;;14.04;33.12;100783.16;4901061;28;102866;-82
2022/03/21 06:36:27;;;;;;;;;16.25;13.25;;;;;14.04;33.25;100783.16;4897473;28;104438;-83
2022/03/21 06:38:54;;;;;;;;;16.75;16.00;;;;;14.04;33.59;100779.59;4900956;28;102285;-83
2022/03/21 06:41:21;;;;;;;;;17.25;15.50;;;;;14.03;33.68;100789.63;4900062;28;110056;-83
2022/03/21 06:43:48;;;;;;;;;21.00;16.75;;;;;14.03;32.98;100780.59;4904111;28;103446;-84
2022/03/21 06:46:15;;;;;;;;;18.75;16.25;;;;;14.03;33.36;100784.19;4898069;28;104409;-83
2022/03/21 06:48:42;;;;;;;;;16.50;14.75;;;;;14.02;32.85;100787.91;4902788;28;103013;-83
2022/03/21 06:51:09;;;;;;;;;18.50;15.00;;;;;14.02;33.86;100787.91;4901373;28;102112;-83
2022/03/21 06:53:36;;;;;;;;;15.00;13.50;;;;;14.01;33.70;100785.34;4891432;28;104013;-83
2022/03/21 06:56:03;;;;;;;;;18.00;16.75;;;;;14.01;33.50;100785.34;4893946;28;103938;-83
2022/03/21 06:58:30;;;;;;;;;16.00;14.00;;;;;14.00;33.10;100798.13;4892481;28;102306;-83
2022/03/21 07:00:57;;;;;;;;;15.25;13.50;;;;;14.00;33.72;100789.13;4894318;28;102597;-83
2022/03/21 07:03:25;;;;;;;;;17.50;15.50;;;;;14.00;32.78;100795.41;4921948;28;102122;-83
2022/03/21 07:05:52;;;;;;;;;14.50;14.50;;;;;14.01;32.90;100794.38;4896664;28;110149;-83
2022/03/21 07:08:19;;;;;;;;;14.75;13.25;;;;;14.02;33.64;100793.34;4904213;28;102599;-83
2022/03/21 07:10:46;;;;;;;;;15.25;15.25;;;;;14.00;33.09;100789.97;4898838;28;102380;-83
2022/03/21 07:13:13;;;;;;;;;14.00;10.75;;;;;14.03;33.83;100795.06;4902001;28;102342;-83
2022/03/21 07:15:40;;;;;;;;;15.00;15.00;;;;;14.03;32.91;100797.78;4899667;28;104288;-83
2022/03/21 07:18:09;;;;;;;;;18.75;15.00;;;;;14.03;32.93;100786.91;4901676;28;102479;-83
2022/03/21 07:20:37;;;;;;;;;17.75;15.00;;;;;14.02;33.45;100797.94;4894901;28;102551;-83
2022/03/21 07:23:04;;;;;;;;;16.75;15.25;;;;;14.03;32.94;100797.78;4897283;28;102552;-83
2022/03/21 07:25:31;;;;;;;;;12.75;12.25;;;;;14.02;33.72;100798.78;4893971;28;104080;-83
2022/03/21 07:27:58;;;;;;;;;15.50;14.25;;;;;14.01;32.96;100793.50;4894904;28;102520;-83
2022/03/21 07:30:26;;;;;;;;;16.00;13.75;;;;;14.01;33.48;100790.78;4897137;28;102446;-83
2022/03/21 07:32:53;;;;;;;;;18.00;16.00;;;;;14.04;33.66;100787.75;4895821;28;102267;-83
2022/03/21 07:35:20;;;;;;;;;14.75;14.00;;;;;14.06;33.27;100789.25;4901530;28;104185;-83
2022/03/21 07:37:50;;;;;;;;;21.00;16.50;;;;;14.10;33.44;100790.63;4888470;28;102591;-83
2022/03/21 07:40:17;;;;;;;;;12.75;11.00;;;;;14.11;33.55;100786.88;4895294;28;102250;-82
2022/03/21 07:42:45;;;;;;;;;17.25;14.75;;;;;14.15;33.68;100781.94;4904389;28;102442;-83
2022/03/21 07:47:59;;;;;;;;;12.50;10.50;;;;;14.25;33.21;100780.75;4901975;28;102699;-82
2022/03/21 07:50:26;;;;;;;;;11.00;10.75;;;;;14.30;33.53;100781.09;4905057;28;102481;-83
2022/03/21 07:52:54;;;;;;;;;13.25;12.75;;;;;14.35;32.96;100783.31;4909684;28;102331;-83
2022/03/21 07:55:21;;;;;;;;;15.50;11.75;;;;;14.40;33.35;100780.09;4884169;28;104145;-83
2022/03/21 07:57:48;;;;;;;;;14.50;11.00;;;;;14.43;33.01;100779.75;4896690;28;102720;-83
2022/03/21 08:00:16;;;;;;;;;14.75;12.75;;;;;14.47;33.39;100781.09;4886121;28;102725;-83
2022/03/21 08:02:43;;;;;;;;;10.25;10.00;;;;;14.49;32.93;100782.63;4897507;28;103085;-83
2022/03/21 08:05:11;;;;;;;;;11.50;11.00;;;;;14.54;33.17;100784.84;4890228;28;104021;-83
2022/03/21 08:07:38;;;;;;;;;17.25;12.25;;;;;14.57;32.83;100779.03;4893264;28;102399;-83
2022/03/21 08:10:06;;;;;;;;;12.50;11.00;;;;;14.58;33.32;100778.88;4889701;28;102380;-83
2022/03/21 08:12:37;;;;;;;;;11.50;10.75;;;;;14.62;33.48;100779.38;4897855;28;102705;-83
2022/03/21 08:15:04;;;;;;;;;13.75;12.00;;;;;14.64;33.01;100774.59;4923866;28;104066;-83
2022/03/21 08:17:33;;;;;;;;;14.75;12.75;;;;;14.65;32.94;100776.28;4899751;28;103412;-83
2022/03/21 08:20:00;;;;;;;;;11.75;10.75;;;;;14.68;33.24;100782.22;4896937;28;102496;-83
2022/03/21 08:22:27;;;;;;;;;15.75;12.75;;;;;14.70;32.95;100784.78;4907605;28;102532;-83
2022/03/21 08:24:55;;;;;;;;;10.25;9.75;;;;;14.72;33.16;100780.84;4901687;28;109034;-82
2022/03/21 08:27:22;;;;;;;;;12.00;9.50;;;;;14.75;33.41;100790.56;4887502;28;102184;-83
2022/03/21 08:29:49;;;;;;;;;13.00;12.00;;;;;14.77;32.83;100785.78;4892164;28;103020;-83
2022/03/21 08:32:16;;;;;;;;;11.00;10.25;;;;;14.78;32.84;100789.34;4895312;28;102507;-83
2022/03/21 08:34:43;;;;;;;;;12.50;10.75;;;;;14.79;32.94;100791.91;4884098;28;104165;-83
2022/03/21 08:37:10;;;;;;;;;12.50;10.75;;;;;14.81;33.14;100789.88;4904379;28;103024;-82
2022/03/21 08:39:37;;;;;;;;;11.75;11.50;;;;;14.82;32.98;100780.66;4893730;28;102684;-83
2022/03/21 08:42:05;;;;;;;;;14.50;13.75;;;;;14.83;33.20;100776.06;4908053;28;102647;-83
2022/03/21 08:44:32;;;;;;;;;9.50;9.00;;;;;14.82;33.57;100779.81;4897563;28;104366;-84
2022/03/21 08:46:59;;;;;;;;;13.25;10.00;;;;;14.83;33.01;100766.03;4900589;28;102511;-83
2022/03/21 08:49:27;;;;;;;;;10.00;8.00;;;;;14.82;32.87;100769.78;4895750;28;102390;-83
2022/03/21 08:51:58;;;;;;;;;12.50;11.25;;;;;14.84;33.54;100772.31;4898022;28;102647;-83
2022/03/21 08:54:26;;;;;;;;;11.25;11.00;;;;;14.84;33.40;100767.72;4898321;28;108742;-83
2022/03/21 08:56:53;;;;;;;;;11.50;10.25;;;;;14.85;33.41;100763.13;4896617;28;103221;-83
2022/03/21 08:59:21;;;;;;;;;11.25;10.00;;;;;14.85;33.38;100763.13;4903376;28;102368;-83
2022/03/21 09:01:48;;;;;;;;;13.00;11.75;;;;;14.84;33.49;100756.84;4893057;28;102964;-83
2022/03/21 09:04:15;;;;;;;;;11.75;9.00;;;;;14.85;33.62;100764.00;4904610;28;103767;-83
2022/03/21 09:06:43;;;;;;;;;9.00;9.00;;;;;14.86;33.43;100757.50;4900577;28;102416;-83
2022/03/21 09:09:10;;;;;;;;;10.25;9.50;;;;;14.87;33.62;100763.78;4907298;28;102388;-83
2022/03/21 09:11:39;;;;;;;;;9.50;8.00;;;;;14.87;33.22;100759.19;4899782;28;102549;-83
2022/03/21 09:14:09;;;;;;;;;10.00;9.50;;;;;14.87;32.88;100764.66;4890366;28;104085;-83
2022/03/21 09:16:42;;;;;;;;;11.50;10.25;;;;;14.88;33.40;100758.19;4892754;28;102190;-83
2022/03/21 09:19:09;;;;;;;;;11.25;10.50;;;;;14.87;33.24;100761.94;4893686;28;102369;-83
2022/03/21 09:21:37;;;;;;;;;11.00;9.50;;;;;14.85;32.82;100752.25;4907707;28;102400;-83
2022/03/21 09:24:04;;;;;;;;;12.25;10.00;;;;;14.86;33.35;100760.22;4908674;28;104232;-83
2022/03/21 09:26:31;;;;;;;;;9.50;8.25;;;;;14.86;32.69;100762.94;4904884;28;102725;-84
2022/03/21 09:29:05;;;;;;;;;7.25;7.00;;;;;14.84;33.40;100762.28;4902665;28;102566;-83
2022/03/21 09:31:32;;;;;;;;;10.00;10.00;;;;;14.84;32.60;100756.84;4895375;28;102596;-83
2022/03/21 09:34:07;;;;;;;;;9.50;8.75;;;;;14.83;32.90;100755.13;4901102;28;104246;-83
2022/03/21 09:36:35;;;;;;;;;10.75;10.00;;;;;14.83;33.20;100749.69;4894114;28;102570;-83
2022/03/21 09:39:02;;;;;;;;;9.75;8.75;;;;;14.84;32.83;100739.66;4916436;28;102426;-83
2022/03/21 09:41:30;;;;;;;;;9.00;9.00;;;;;14.83;32.90;100737.94;4928101;28;105807;-83
2022/03/21 09:44:03;;;;;;;;;11.25;8.50;;;;;14.82;33.10;100734.34;4907795;28;108614;-83
2022/03/21 09:46:30;;;;;;;;;10.25;9.00;;;;;14.84;33.47;100735.06;4894996;28;102747;-85
2022/03/21 09:48:58;;;;;;;;;13.00;9.75;;;;;14.87;32.84;100742.84;4900709;28;102814;-83
2022/03/21 09:51:28;;;;;;;;;9.00;8.75;;;;;14.88;33.31;100730.94;4904965;28;104020;-83
2022/03/21 09:53:56;;;;;;;;;9.50;9.50;;;;;14.89;33.21;100729.94;4913964;28;109069;-83
2022/03/21 09:56:23;;;;;;;;;8.50;8.00;;;;;14.91;33.29;100724.28;4904106;28;102256;-83
2022/03/21 09:58:53;;;;;;;;;9.50;9.00;;;;;14.92;33.23;100721.38;4889134;28;102077;-83
2022/03/21 10:01:20;;;;;;;;;13.00;9.75;;;;;14.92;33.13;100718.66;4897420;28;104713;-83
2022/03/21 10:03:47;;;;;;;;;9.75;9.25;;;;;14.94;33.45;100724.78;4897834;28;103589;-83
2022/03/21 10:06:32;;;;;;;;;12.50;11.00;;;;;14.97;32.96;100724.44;4898442;28;102697;-82
2022/03/21 10:09:05;;;;;;;;;10.00;10.00;;;;;14.98;33.48;100708.94;4891848;28;104409;-84
2022/03/21 10:11:32;;;;;;;;;8.50;8.25;;;;;14.98;33.34;100720.69;4895914;28;102738;-83
2022/03/21 10:14:23;;;;;;;;;9.50;8.75;;;;;14.99;32.70;100706.03;4892190;28;104325;-83
2022/03/21 10:16:57;;;;;;;;;9.50;7.25;;;;;15.02;33.40;100702.97;4899419;28;102550;-84
2022/03/21 10:19:24;;;;;;;;;8.75;7.25;;;;;15.05;32.84;100704.47;4905733;28;102544;-83
2022/03/21 10:22:07;;;;;;;;;11.00;9.00;;;;;15.08;32.81;100715.03;4893256;28;108052;-83
2022/03/21 10:24:39;;;;;;;;;9.00;7.75;;;;;15.10;33.02;100704.78;4895905;28;108890;-83
2022/03/21 10:27:06;;;;;;;;;8.25;8.25;;;;;15.13;33.14;100696.22;4913082;28;102258;-83
2022/03/21 10:29:49;;;;;;;;;8.75;8.00;;;;;15.16;33.06;100698.63;4900975;28;102496;-84
2022/03/21 10:32:32;;;;;;;;;9.25;7.25;;;;;15.21;33.20;100698.94;4902989;28;102214;-84
2022/03/21 10:35:01;;;;;;;;;7.00;7.00;;;;;15.23;32.95;100691.41;4898910;28;109514;-83
2022/03/21 10:37:49;;;;;;;;;9.00;8.00;;;;;15.25;32.99;100683.06;4902799;28;102543;-83
2022/03/21 10:40:42;;;;;;;;;7.25;6.75;;;;;15.28;32.92;100690.88;4898989;28;102585;-83
2022/03/21 10:43:14;;;;;;;;;7.00;6.50;;;;;15.29;32.91;100687.97;4901777;28;102718;-84
2022/03/21 10:45:44;;;;;;;;;10.25;7.50;;;;;15.30;32.76;100684.22;4895285;28;104078;-84
2022/03/21 10:48:23;;;;;;;;;10.75;8.00;;;;;15.33;32.80;100688.47;4895894;28;103148;-83
2022/03/21 10:50:51;;;;;;;;;9.00;7.50;;;;;15.33;33.06;100681.13;4903164;28;103892;-83
2022/03/21 10:53:21;;;;;;;;;9.25;9.00;;;;;15.35;32.91;100675.50;4896011;28;102726;-83
2022/03/21 10:55:54;;;;;;;;;8.00;7.50;;;;;15.35;33.30;100662.72;4895231;28;104405;-83
2022/03/21 10:58:33;;;;;;;;;9.50;8.75;;;;;15.37;33.39;100677.00;4895927;28;102546;-84
2022/03/21 11:01:13;;;;;;;;;8.75;8.00;;;;;15.38;33.29;100661.50;4905733;28;104037;-83
2022/03/21 11:03:41;;;;;;;;;7.00;7.00;;;;;15.39;33.45;100663.22;4899636;28;102811;-83
2022/03/21 11:06:09;;;;;;;;;8.00;8.00;;;;;15.41;33.07;100655.69;4894778;28;104331;-84
2022/03/21 11:08:36;;;;;;;;;7.25;7.00;;;;;15.41;33.39;100655.69;4894413;28;102585;-83
2022/03/21 11:11:04;;;;;;;;;5.00;3.50;;;;;15.42;32.95;100660.97;4920124;28;102624;-84
2022/03/21 11:13:32;;;;;;;;;8.75;8.75;;;;;15.46;33.23;100664.16;4899485;28;102695;-84
2022/03/21 11:15:59;;;;;;;;;8.75;8.00;;;;;15.45;33.52;100657.84;4904527;28;103836;-83
2022/03/21 11:18:27;;;;;;;;;7.50;7.00;;;;;15.47;33.05;100654.97;4899791;28;102520;-83
2022/03/21 11:20:56;;;;;;;;;10.00;9.00;;;;;15.46;33.06;100655.97;4919911;28;102519;-83
2022/03/21 11:23:25;;;;;;;;;8.25;6.50;;;;;15.48;33.30;100643.03;4893561;28;103141;-84
2022/03/21 11:26:11;;;;;;;;;11.50;8.75;;;;;15.45;33.07;100635.19;4895206;28;104005;-83
2022/03/21 11:28:53;;;;;;;;;9.00;7.25;;;;;15.46;32.85;100643.19;4908329;28;102520;-84
2022/03/21 11:31:59;;;;;;;;;8.00;7.00;;;;;15.47;33.16;100639.44;4888956;28;102623;-84
2022/03/21 11:34:38;;;;;;;;;6.75;6.75;;;;;15.48;33.52;100632.13;4891824;28;102277;-84